sensor_id;sensor_type;location;lat;lon;timestamp;P1;durP1;ratioP1;P2;durP2;ratioP2
52858;SDS011;38721;53.098;6.596;2024-03-23T03:28:05;21.42;;;5.53;;
52858;SDS011;38721;53.098;6.596;2024-03-23T03:30:31;28.85;;;5.60;;
52858;SDS011;38721;53.098;6.596;2024-03-23T03:32:56;18.25;;;4.80;;
52858;SDS011;38721;53.098;6.596;2024-03-23T03:35:22;21.42;;;5.60;;
52858;SDS011;38721;53.098;6.596;2024-03-23T03:37:48;21.90;;;5.10;;
52858;SDS011;38721;53.098;6.596;2024-03-23T03:40:14;16.13;;;4.95;;
52858;SDS011;38721;53.098;6.596;2024-03-23T03:42:40;22.65;;;5.47;;
52858;SDS011;38721;53.098;6.596;2024-03-23T03:45:06;21.00;;;5.55;;
52858;SDS011;38721;53.098;6.596;2024-03-23T03:47:32;16.52;;;4.85;;
52858;SDS011;38721;53.098;6.596;2024-03-23T03:49:58;20.10;;;4.75;;
52858;SDS011;38721;53.098;6.596;2024-03-23T03:52:24;16.08;;;5.13;;
52858;SDS011;38721;53.098;6.596;2024-03-23T03:54:50;16.52;;;4.97;;
52858;SDS011;38721;53.098;6.596;2024-03-23T03:57:16;17.92;;;5.10;;
52858;SDS011;38721;53.098;6.596;2024-03-23T03:59:42;18.58;;;6.25;;
52858;SDS011;38721;53.098;6.596;2024-03-23T04:02:08;14.25;;;5.18;;
52858;SDS011;38721;53.098;6.596;2024-03-23T04:04:33;18.58;;;5.70;;
52858;SDS011;38721;53.098;6.596;2024-03-23T04:06:59;19.38;;;5.30;;
52858;SDS011;38721;53.098;6.596;2024-03-23T04:09:28;19.38;;;5.15;;
52858;SDS011;38721;53.098;6.596;2024-03-23T04:11:55;20.65;;;5.55;;
52858;SDS011;38721;53.098;6.596;2024-03-23T04:14:21;18.80;;;4.72;;
52858;SDS011;38721;53.098;6.596;2024-03-23T04:16:47;17.88;;;5.15;;
52858;SDS011;38721;53.098;6.596;2024-03-23T04:19:12;19.13;;;5.13;;
52858;SDS011;38721;53.098;6.596;2024-03-23T04:21:39;15.70;;;4.80;;
52858;SDS011;38721;53.098;6.596;2024-03-23T04:24:05;18.45;;;4.82;;
52858;SDS011;38721;53.098;6.596;2024-03-23T04:26:41;23.27;;;4.93;;
52858;SDS011;38721;53.098;6.596;2024-03-23T04:29:07;16.58;;;4.47;;
52858;SDS011;38721;53.098;6.596;2024-03-23T04:31:33;13.85;;;5.10;;
52858;SDS011;38721;53.098;6.596;2024-03-23T04:34:00;18.52;;;5.72;;
52858;SDS011;38721;53.098;6.596;2024-03-23T04:36:26;18.73;;;4.78;;
52858;SDS011;38721;53.098;6.596;2024-03-23T04:38:52;19.08;;;4.97;;
52858;SDS011;38721;53.098;6.596;2024-03-23T04:41:18;15.50;;;4.57;;
52858;SDS011;38721;53.098;6.596;2024-03-23T04:43:44;13.57;;;4.60;;
52858;SDS011;38721;53.098;6.596;2024-03-23T04:46:10;12.32;;;4.65;;
52858;SDS011;38721;53.098;6.596;2024-03-23T04:48:36;17.25;;;5.10;;
52858;SDS011;38721;53.098;6.596;2024-03-23T04:51:02;18.20;;;5.13;;
52858;SDS011;38721;53.098;6.596;2024-03-23T04:53:28;18.05;;;4.72;;
52858;SDS011;38721;53.098;6.596;2024-03-23T04:55:55;17.73;;;4.90;;
52858;SDS011;38721;53.098;6.596;2024-03-23T04:58:24;20.17;;;4.72;;
52858;SDS011;38721;53.098;6.596;2024-03-23T05:00:54;12.95;;;3.97;;
52858;SDS011;38721;53.098;6.596;2024-03-23T05:03:20;18.05;;;5.00;;
52858;SDS011;38721;53.098;6.596;2024-03-23T05:05:46;18.23;;;4.78;;
52858;SDS011;38721;53.098;6.596;2024-03-23T05:08:13;19.98;;;5.03;;
52858;SDS011;38721;53.098;6.596;2024-03-23T05:10:41;19.00;;;4.80;;
52858;SDS011;38721;53.098;6.596;2024-03-23T05:13:07;15.88;;;4.45;;
52858;SDS011;38721;53.098;6.596;2024-03-23T05:15:33;20.67;;;5.07;;
52858;SDS011;38721;53.098;6.596;2024-03-23T05:17:59;17.58;;;4.65;;
52858;SDS011;38721;53.098;6.596;2024-03-23T05:20:24;18.63;;;4.38;;
52858;SDS011;38721;53.098;6.596;2024-03-23T05:22:50;12.60;;;4.88;;
52858;SDS011;38721;53.098;6.596;2024-03-23T05:25:16;20.00;;;4.70;;
52858;SDS011;38721;53.098;6.596;2024-03-23T05:27:44;14.10;;;4.13;;
52858;SDS011;38721;53.098;6.596;2024-03-23T05:30:10;21.20;;;5.03;;
52858;SDS011;38721;53.098;6.596;2024-03-23T05:32:36;14.23;;;4.63;;
52858;SDS011;38721;53.098;6.596;2024-03-23T05:35:05;18.95;;;4.40;;
52858;SDS011;38721;53.098;6.596;2024-03-23T05:37:32;16.85;;;4.45;;
52858;SDS011;38721;53.098;6.596;2024-03-23T05:39:59;16.35;;;5.38;;
52858;SDS011;38721;53.098;6.596;2024-03-23T05:42:25;14.57;;;3.97;;
52858;SDS011;38721;53.098;6.596;2024-03-23T05:44:51;20.42;;;4.63;;
52858;SDS011;38721;53.098;6.596;2024-03-23T05:47:17;18.67;;;4.32;;
52858;SDS011;38721;53.098;6.596;2024-03-23T05:49:43;14.05;;;3.58;;
52858;SDS011;38721;53.098;6.596;2024-03-23T05:52:11;16.27;;;3.53;;
52858;SDS011;38721;53.098;6.596;2024-03-23T05:54:37;20.05;;;3.80;;
52858;SDS011;38721;53.098;6.596;2024-03-23T05:57:02;12.48;;;4.10;;
52858;SDS011;38721;53.098;6.596;2024-03-23T05:59:29;16.77;;;4.50;;
52858;SDS011;38721;53.098;6.596;2024-03-23T06:01:55;14.60;;;3.67;;
52858;SDS011;38721;53.098;6.596;2024-03-23T06:04:20;15.60;;;4.97;;
52858;SDS011;38721;53.098;6.596;2024-03-23T06:06:47;14.77;;;4.28;;
52858;SDS011;38721;53.098;6.596;2024-03-23T06:09:13;18.23;;;4.43;;
52858;SDS011;38721;53.098;6.596;2024-03-23T06:11:39;11.48;;;3.40;;
52858;SDS011;38721;53.098;6.596;2024-03-23T06:14:05;11.18;;;3.30;;
52858;SDS011;38721;53.098;6.596;2024-03-23T06:16:31;12.30;;;3.13;;
52858;SDS011;38721;53.098;6.596;2024-03-23T06:18:56;13.45;;;2.72;;
52858;SDS011;38721;53.098;6.596;2024-03-23T06:21:23;5.85;;;2.88;;
52858;SDS011;38721;53.098;6.596;2024-03-23T06:23:52;7.25;;;2.05;;
52858;SDS011;38721;53.098;6.596;2024-03-23T06:26:19;6.15;;;2.50;;
52858;SDS011;38721;53.098;6.596;2024-03-23T06:28:46;9.20;;;3.28;;
52858;SDS011;38721;53.098;6.596;2024-03-23T06:31:12;7.88;;;2.65;;
52858;SDS011;38721;53.098;6.596;2024-03-23T06:33:38;7.43;;;2.90;;
52858;SDS011;38721;53.098;6.596;2024-03-23T06:36:05;10.65;;;3.10;;
52858;SDS011;38721;53.098;6.596;2024-03-23T06:38:31;11.25;;;3.13;;
52858;SDS011;38721;53.098;6.596;2024-03-23T06:40:57;9.98;;;2.78;;
52858;SDS011;38721;53.098;6.596;2024-03-23T06:43:23;7.72;;;2.30;;
52858;SDS011;38721;53.098;6.596;2024-03-23T06:45:52;7.68;;;2.78;;
52858;SDS011;38721;53.098;6.596;2024-03-23T06:48:19;12.18;;;2.80;;
52858;SDS011;38721;53.098;6.596;2024-03-23T06:50:45;11.75;;;2.28;;
52858;SDS011;38721;53.098;6.596;2024-03-23T06:53:11;12.48;;;2.70;;
52858;SDS011;38721;53.098;6.596;2024-03-23T06:55:40;7.30;;;2.70;;
52858;SDS011;38721;53.098;6.596;2024-03-23T06:58:07;5.57;;;2.33;;
52858;SDS011;38721;53.098;6.596;2024-03-23T07:00:33;9.88;;;2.60;;
52858;SDS011;38721;53.098;6.596;2024-03-23T07:02:59;11.75;;;2.83;;
52858;SDS011;38721;53.098;6.596;2024-03-23T07:05:25;11.80;;;2.83;;
52858;SDS011;38721;53.098;6.596;2024-03-23T07:07:51;10.68;;;3.00;;
52858;SDS011;38721;53.098;6.596;2024-03-23T07:10:17;6.32;;;2.33;;
52858;SDS011;38721;53.098;6.596;2024-03-23T07:12:43;9.25;;;3.05;;
52858;SDS011;38721;53.098;6.596;2024-03-23T07:15:09;8.40;;;2.70;;
52858;SDS011;38721;53.098;6.596;2024-03-23T07:17:35;11.95;;;2.75;;
52858;SDS011;38721;53.098;6.596;2024-03-23T07:20:04;10.60;;;2.97;;
52858;SDS011;38721;53.098;6.596;2024-03-23T07:22:30;8.88;;;2.90;;
52858;SDS011;38721;53.098;6.596;2024-03-23T07:24:56;8.05;;;2.60;;
52858;SDS011;38721;53.098;6.596;2024-03-23T07:27:25;7.45;;;2.45;;
52858;SDS011;38721;53.098;6.596;2024-03-23T07:29:51;8.15;;;2.38;;
52858;SDS011;38721;53.098;6.596;2024-03-23T07:32:17;5.03;;;1.92;;
52858;SDS011;38721;53.098;6.596;2024-03-23T07:34:42;5.78;;;2.05;;
52858;SDS011;38721;53.098;6.596;2024-03-23T07:37:09;6.50;;;2.08;;
52858;SDS011;38721;53.098;6.596;2024-03-23T07:39:35;3.63;;;1.52;;
52858;SDS011;38721;53.098;6.596;2024-03-23T07:42:01;5.85;;;1.58;;
52858;SDS011;38721;53.098;6.596;2024-03-23T07:44:27;4.30;;;1.48;;
52858;SDS011;38721;53.098;6.596;2024-03-23T07:46:56;5.40;;;1.30;;
52858;SDS011;38721;53.098;6.596;2024-03-23T07:49:24;5.72;;;1.60;;
52858;SDS011;38721;53.098;6.596;2024-03-23T07:51:50;4.70;;;1.88;;
52858;SDS011;38721;53.098;6.596;2024-03-23T07:54:16;10.25;;;2.35;;
52858;SDS011;38721;53.098;6.596;2024-03-23T07:56:42;4.20;;;1.80;;
52858;SDS011;38721;53.098;6.596;2024-03-23T07:59:07;6.20;;;1.98;;
52858;SDS011;38721;53.098;6.596;2024-03-23T08:01:33;5.53;;;1.65;;
52858;SDS011;38721;53.098;6.596;2024-03-23T08:03:59;7.20;;;2.05;;
52858;SDS011;38721;53.098;6.596;2024-03-23T08:06:25;4.65;;;1.92;;
52858;SDS011;38721;53.098;6.596;2024-03-23T08:08:54;3.65;;;1.55;;
52858;SDS011;38721;53.098;6.596;2024-03-23T08:11:27;5.45;;;2.17;;
52858;SDS011;38721;53.098;6.596;2024-03-23T08:13:54;4.80;;;1.98;;
52858;SDS011;38721;53.098;6.596;2024-03-23T08:16:21;6.90;;;2.03;;
52858;SDS011;38721;53.098;6.596;2024-03-23T08:18:47;5.32;;;1.85;;
52858;SDS011;38721;53.098;6.596;2024-03-23T08:21:13;4.05;;;1.60;;
52858;SDS011;38721;53.098;6.596;2024-03-23T08:23:39;3.50;;;1.40;;
52858;SDS011;38721;53.098;6.596;2024-03-23T08:28:32;2.83;;;1.30;;
52858;SDS011;38721;53.098;6.596;2024-03-23T08:31:00;5.57;;;1.85;;
52858;SDS011;38721;53.098;6.596;2024-03-23T08:33:33;5.53;;;2.08;;
52858;SDS011;38721;53.098;6.596;2024-03-23T08:36:00;4.88;;;1.80;;
52858;SDS011;38721;53.098;6.596;2024-03-23T08:38:33;5.65;;;1.92;;
52858;SDS011;38721;53.098;6.596;2024-03-23T08:41:00;7.82;;;2.15;;
52858;SDS011;38721;53.098;6.596;2024-03-23T08:43:34;7.32;;;2.00;;
52858;SDS011;38721;53.098;6.596;2024-03-23T08:48:34;5.18;;;2.25;;
52858;SDS011;38721;53.098;6.596;2024-03-23T08:53:31;8.88;;;2.55;;
52858;SDS011;38721;53.098;6.596;2024-03-23T08:55:57;5.90;;;2.33;;
52858;SDS011;38721;53.098;6.596;2024-03-23T08:58:24;9.85;;;2.53;;
52858;SDS011;38721;53.098;6.596;2024-03-23T09:00:51;9.35;;;2.63;;
52858;SDS011;38721;53.098;6.596;2024-03-23T09:03:17;9.23;;;2.30;;
52858;SDS011;38721;53.098;6.596;2024-03-23T09:05:43;6.72;;;2.58;;
52858;SDS011;38721;53.098;6.596;2024-03-23T09:08:09;10.15;;;3.00;;
52858;SDS011;38721;53.098;6.596;2024-03-23T09:10:39;8.15;;;3.00;;
52858;SDS011;38721;53.098;6.596;2024-03-23T09:13:05;7.15;;;2.65;;
52858;SDS011;38721;53.098;6.596;2024-03-23T09:15:32;8.43;;;2.85;;
52858;SDS011;38721;53.098;6.596;2024-03-23T09:18:02;6.45;;;2.58;;
52858;SDS011;38721;53.098;6.596;2024-03-23T09:20:28;5.65;;;2.50;;
52858;SDS011;38721;53.098;6.596;2024-03-23T09:22:54;15.07;;;3.13;;
52858;SDS011;38721;53.098;6.596;2024-03-23T09:25:20;9.57;;;3.08;;
52858;SDS011;38721;53.098;6.596;2024-03-23T09:27:46;8.55;;;2.65;;
52858;SDS011;38721;53.098;6.596;2024-03-23T09:30:12;14.43;;;3.00;;
52858;SDS011;38721;53.098;6.596;2024-03-23T09:32:39;8.75;;;2.65;;
52858;SDS011;38721;53.098;6.596;2024-03-23T09:35:08;11.73;;;2.80;;
52858;SDS011;38721;53.098;6.596;2024-03-23T09:37:35;7.85;;;2.28;;
52858;SDS011;38721;53.098;6.596;2024-03-23T09:40:01;9.40;;;3.00;;
52858;SDS011;38721;53.098;6.596;2024-03-23T09:42:28;5.63;;;1.80;;
52858;SDS011;38721;53.098;6.596;2024-03-23T09:44:54;6.88;;;3.15;;
52858;SDS011;38721;53.098;6.596;2024-03-23T09:47:23;8.07;;;2.17;;
52858;SDS011;38721;53.098;6.596;2024-03-23T09:49:50;10.00;;;2.17;;
52858;SDS011;38721;53.098;6.596;2024-03-23T09:52:16;7.43;;;1.63;;
52858;SDS011;38721;53.098;6.596;2024-03-23T09:54:42;5.38;;;1.92;;
52858;SDS011;38721;53.098;6.596;2024-03-23T09:57:08;5.15;;;1.60;;
52858;SDS011;38721;53.098;6.596;2024-03-23T09:59:34;8.50;;;2.20;;
52858;SDS011;38721;53.098;6.596;2024-03-23T10:02:01;6.30;;;1.60;;
52858;SDS011;38721;53.098;6.596;2024-03-23T10:04:40;6.22;;;1.98;;
52858;SDS011;38721;53.098;6.596;2024-03-23T10:07:18;8.43;;;2.03;;
52858;SDS011;38721;53.098;6.596;2024-03-23T10:09:44;7.78;;;2.03;;
52858;SDS011;38721;53.098;6.596;2024-03-23T10:12:11;7.43;;;2.20;;
52858;SDS011;38721;53.098;6.596;2024-03-23T10:14:40;6.35;;;2.05;;
52858;SDS011;38721;53.098;6.596;2024-03-23T10:17:14;10.25;;;2.05;;
52858;SDS011;38721;53.098;6.596;2024-03-23T10:19:40;7.80;;;2.00;;
52858;SDS011;38721;53.098;6.596;2024-03-23T10:22:08;8.52;;;3.15;;
52858;SDS011;38721;53.098;6.596;2024-03-23T10:24:34;6.25;;;2.17;;
52858;SDS011;38721;53.098;6.596;2024-03-23T10:27:00;9.20;;;2.50;;
52858;SDS011;38721;53.098;6.596;2024-03-23T10:29:26;6.72;;;2.20;;
52858;SDS011;38721;53.098;6.596;2024-03-23T10:31:55;15.82;;;2.80;;
52858;SDS011;38721;53.098;6.596;2024-03-23T10:34:36;11.65;;;2.70;;
52858;SDS011;38721;53.098;6.596;2024-03-23T10:37:03;9.18;;;2.35;;
52858;SDS011;38721;53.098;6.596;2024-03-23T10:39:34;10.02;;;2.10;;
52858;SDS011;38721;53.098;6.596;2024-03-23T10:42:05;7.18;;;2.05;;
52858;SDS011;38721;53.098;6.596;2024-03-23T10:44:33;8.80;;;2.20;;
52858;SDS011;38721;53.098;6.596;2024-03-23T10:46:59;9.15;;;2.08;;
52858;SDS011;38721;53.098;6.596;2024-03-23T10:49:28;8.38;;;2.38;;
52858;SDS011;38721;53.098;6.596;2024-03-23T10:51:59;5.53;;;2.10;;
52858;SDS011;38721;53.098;6.596;2024-03-23T10:54:26;7.10;;;2.05;;
52858;SDS011;38721;53.098;6.596;2024-03-23T10:56:57;8.73;;;2.40;;
52858;SDS011;38721;53.098;6.596;2024-03-23T10:59:29;9.43;;;1.92;;
52858;SDS011;38721;53.098;6.596;2024-03-23T11:01:56;5.40;;;1.50;;
52858;SDS011;38721;53.098;6.596;2024-03-23T11:04:33;2.25;;;1.15;;
52858;SDS011;38721;53.098;6.596;2024-03-23T11:09:53;4.93;;;1.50;;
52858;SDS011;38721;53.098;6.596;2024-03-23T11:15:10;6.70;;;1.58;;
52858;SDS011;38721;53.098;6.596;2024-03-23T11:17:37;5.30;;;1.90;;
52858;SDS011;38721;53.098;6.596;2024-03-23T11:20:04;3.88;;;1.73;;
52858;SDS011;38721;53.098;6.596;2024-03-23T11:25:03;6.85;;;1.35;;
52858;SDS011;38721;53.098;6.596;2024-03-23T11:27:37;5.95;;;1.95;;
52858;SDS011;38721;53.098;6.596;2024-03-23T11:30:12;4.72;;;1.60;;
52858;SDS011;38721;53.098;6.596;2024-03-23T11:32:45;4.40;;;1.38;;
52858;SDS011;38721;53.098;6.596;2024-03-23T11:35:34;4.18;;;1.40;;
52858;SDS011;38721;53.098;6.596;2024-03-23T11:40:31;4.18;;;1.23;;
52858;SDS011;38721;53.098;6.596;2024-03-23T11:42:59;3.95;;;1.17;;
52858;SDS011;38721;53.098;6.596;2024-03-23T11:45:48;4.38;;;1.48;;
52858;SDS011;38721;53.098;6.596;2024-03-23T11:50:46;6.00;;;1.35;;
52858;SDS011;38721;53.098;6.596;2024-03-23T11:53:15;5.18;;;1.60;;
52858;SDS011;38721;53.098;6.596;2024-03-23T11:55:42;5.60;;;1.65;;
52858;SDS011;38721;53.098;6.596;2024-03-23T11:58:11;6.10;;;1.73;;
52858;SDS011;38721;53.098;6.596;2024-03-23T12:00:37;4.68;;;1.27;;
52858;SDS011;38721;53.098;6.596;2024-03-23T12:03:04;3.90;;;1.30;;
52858;SDS011;38721;53.098;6.596;2024-03-23T12:05:31;2.05;;;1.05;;
52858;SDS011;38721;53.098;6.596;2024-03-23T12:11:25;6.53;;;1.23;;
52858;SDS011;38721;53.098;6.596;2024-03-23T12:13:35;5.05;;;1.58;;
52858;SDS011;38721;53.098;6.596;2024-03-23T12:16:11;5.63;;;1.40;;
52858;SDS011;38721;53.098;6.596;2024-03-23T12:18:39;5.45;;;1.40;;
52858;SDS011;38721;53.098;6.596;2024-03-23T12:21:11;4.18;;;1.48;;
52858;SDS011;38721;53.098;6.596;2024-03-23T12:23:40;7.22;;;1.35;;
52858;SDS011;38721;53.098;6.596;2024-03-23T12:26:13;4.28;;;1.77;;
52858;SDS011;38721;53.098;6.596;2024-03-23T12:28:40;7.57;;;2.00;;
52858;SDS011;38721;53.098;6.596;2024-03-23T12:31:06;3.53;;;1.13;;
52858;SDS011;38721;53.098;6.596;2024-03-23T12:33:32;6.50;;;1.52;;
52858;SDS011;38721;53.098;6.596;2024-03-23T12:35:58;6.88;;;2.10;;
52858;SDS011;38721;53.098;6.596;2024-03-23T12:38:23;4.95;;;1.33;;
52858;SDS011;38721;53.098;6.596;2024-03-23T12:40:50;5.07;;;1.17;;
52858;SDS011;38721;53.098;6.596;2024-03-23T12:43:16;3.00;;;1.35;;
52858;SDS011;38721;53.098;6.596;2024-03-23T12:45:49;6.43;;;1.27;;
52858;SDS011;38721;53.098;6.596;2024-03-23T12:48:15;2.35;;;1.38;;
52858;SDS011;38721;53.098;6.596;2024-03-23T12:50:41;5.60;;;1.52;;
52858;SDS011;38721;53.098;6.596;2024-03-23T12:53:07;2.40;;;1.40;;
52858;SDS011;38721;53.098;6.596;2024-03-23T12:55:36;3.28;;;1.20;;
52858;SDS011;38721;53.098;6.596;2024-03-23T12:58:02;7.13;;;1.42;;
52858;SDS011;38721;53.098;6.596;2024-03-23T13:00:28;4.40;;;1.70;;
52858;SDS011;38721;53.098;6.596;2024-03-23T13:02:54;3.25;;;0.98;;
52858;SDS011;38721;53.098;6.596;2024-03-23T13:05:20;4.13;;;1.23;;
52858;SDS011;38721;53.098;6.596;2024-03-23T13:07:45;3.75;;;1.45;;
52858;SDS011;38721;53.098;6.596;2024-03-23T13:10:11;6.72;;;1.60;;
52858;SDS011;38721;53.098;6.596;2024-03-23T13:12:37;5.63;;;1.30;;
52858;SDS011;38721;53.098;6.596;2024-03-23T13:15:02;6.95;;;1.38;;
52858;SDS011;38721;53.098;6.596;2024-03-23T13:17:29;8.48;;;1.58;;
52858;SDS011;38721;53.098;6.596;2024-03-23T13:19:54;4.32;;;1.58;;
52858;SDS011;38721;53.098;6.596;2024-03-23T13:22:23;7.70;;;1.42;;
52858;SDS011;38721;53.098;6.596;2024-03-23T13:24:48;4.20;;;1.30;;
52858;SDS011;38721;53.098;6.596;2024-03-23T13:27:15;6.30;;;1.27;;
52858;SDS011;38721;53.098;6.596;2024-03-23T13:29:41;6.40;;;2.00;;
52858;SDS011;38721;53.098;6.596;2024-03-23T13:32:07;8.20;;;2.03;;
52858;SDS011;38721;53.098;6.596;2024-03-23T13:34:33;10.20;;;2.17;;
52858;SDS011;38721;53.098;6.596;2024-03-23T13:37:00;9.80;;;2.40;;
52858;SDS011;38721;53.098;6.596;2024-03-23T13:39:26;7.65;;;2.30;;
52858;SDS011;38721;53.098;6.596;2024-03-23T13:41:54;12.20;;;2.92;;
52858;SDS011;38721;53.098;6.596;2024-03-23T13:44:23;9.25;;;2.58;;
52858;SDS011;38721;53.098;6.596;2024-03-23T13:46:49;14.00;;;3.00;;
52858;SDS011;38721;53.098;6.596;2024-03-23T13:54:15;7.82;;;2.30;;
52858;SDS011;38721;53.098;6.596;2024-03-23T13:56:41;10.77;;;2.63;;
52858;SDS011;38721;53.098;6.596;2024-03-23T13:59:09;7.00;;;2.08;;
52858;SDS011;38721;53.098;6.596;2024-03-23T14:01:35;7.63;;;2.08;;
52858;SDS011;38721;53.098;6.596;2024-03-23T14:04:01;13.13;;;2.60;;
52858;SDS011;38721;53.098;6.596;2024-03-23T14:06:27;9.68;;;2.08;;
52858;SDS011;38721;53.098;6.596;2024-03-23T14:08:52;8.65;;;2.60;;
52858;SDS011;38721;53.098;6.596;2024-03-23T14:11:18;11.25;;;2.47;;
52858;SDS011;38721;53.098;6.596;2024-03-23T14:13:44;10.00;;;2.50;;
52858;SDS011;38721;53.098;6.596;2024-03-23T14:16:10;5.55;;;2.03;;
52858;SDS011;38721;53.098;6.596;2024-03-23T14:18:35;5.47;;;2.15;;
52858;SDS011;38721;53.098;6.596;2024-03-23T14:21:01;10.75;;;2.55;;
52858;SDS011;38721;53.098;6.596;2024-03-23T14:23:28;9.02;;;2.00;;
52858;SDS011;38721;53.098;6.596;2024-03-23T14:25:57;7.85;;;2.38;;
52858;SDS011;38721;53.098;6.596;2024-03-23T14:28:23;8.13;;;2.15;;
52858;SDS011;38721;53.098;6.596;2024-03-23T14:30:49;12.60;;;2.58;;
52858;SDS011;38721;53.098;6.596;2024-03-23T14:33:16;6.45;;;2.53;;
52858;SDS011;38721;53.098;6.596;2024-03-23T14:35:43;7.75;;;2.20;;
52858;SDS011;38721;53.098;6.596;2024-03-23T14:38:10;8.95;;;2.25;;
52858;SDS011;38721;53.098;6.596;2024-03-23T14:41:03;7.63;;;1.92;;
52858;SDS011;38721;53.098;6.596;2024-03-23T14:43:29;7.78;;;2.53;;
52858;SDS011;38721;53.098;6.596;2024-03-23T14:46:08;10.20;;;2.28;;
52858;SDS011;38721;53.098;6.596;2024-03-23T14:48:34;9.18;;;2.42;;
52858;SDS011;38721;53.098;6.596;2024-03-23T14:51:01;9.20;;;2.10;;
52858;SDS011;38721;53.098;6.596;2024-03-23T14:53:33;8.75;;;2.10;;
52858;SDS011;38721;53.098;6.596;2024-03-23T14:56:00;6.82;;;2.13;;
52858;SDS011;38721;53.098;6.596;2024-03-23T14:58:27;7.32;;;2.35;;
52858;SDS011;38721;53.098;6.596;2024-03-23T15:01:03;6.40;;;2.28;;
52858;SDS011;38721;53.098;6.596;2024-03-23T15:03:30;12.90;;;2.20;;
52858;SDS011;38721;53.098;6.596;2024-03-23T15:05:56;4.97;;;2.10;;
52858;SDS011;38721;53.098;6.596;2024-03-23T15:08:23;9.43;;;1.73;;
52858;SDS011;38721;53.098;6.596;2024-03-23T15:10:49;5.35;;;1.10;;
52858;SDS011;38721;53.098;6.596;2024-03-23T15:13:16;3.70;;;1.08;;
52858;SDS011;38721;53.098;6.596;2024-03-23T15:15:42;7.00;;;2.45;;
52858;SDS011;38721;53.098;6.596;2024-03-23T15:18:10;7.90;;;1.48;;
52858;SDS011;38721;53.098;6.596;2024-03-23T15:20:37;6.43;;;1.73;;
52858;SDS011;38721;53.098;6.596;2024-03-23T15:23:04;3.58;;;1.00;;
52858;SDS011;38721;53.098;6.596;2024-03-23T15:25:30;3.83;;;1.10;;
52858;SDS011;38721;53.098;6.596;2024-03-23T15:27:57;6.38;;;1.65;;
52858;SDS011;38721;53.098;6.596;2024-03-23T15:30:24;8.15;;;1.40;;
52858;SDS011;38721;53.098;6.596;2024-03-23T15:32:50;4.68;;;1.25;;
52858;SDS011;38721;53.098;6.596;2024-03-23T15:35:15;4.32;;;1.38;;
52858;SDS011;38721;53.098;6.596;2024-03-23T15:37:41;4.55;;;1.58;;
52858;SDS011;38721;53.098;6.596;2024-03-23T15:40:08;8.88;;;1.45;;
52858;SDS011;38721;53.098;6.596;2024-03-23T15:42:35;5.95;;;1.83;;
52858;SDS011;38721;53.098;6.596;2024-03-23T15:45:01;8.38;;;1.70;;
52858;SDS011;38721;53.098;6.596;2024-03-23T15:47:28;7.80;;;1.67;;
52858;SDS011;38721;53.098;6.596;2024-03-23T15:49:54;3.90;;;1.10;;
52858;SDS011;38721;53.098;6.596;2024-03-23T15:52:21;4.60;;;1.27;;
52858;SDS011;38721;53.098;6.596;2024-03-23T15:54:47;3.63;;;1.33;;
52858;SDS011;38721;53.098;6.596;2024-03-23T15:57:13;8.10;;;1.70;;
52858;SDS011;38721;53.098;6.596;2024-03-23T15:59:40;9.68;;;1.58;;
52858;SDS011;38721;53.098;6.596;2024-03-23T16:02:06;6.05;;;1.20;;
52858;SDS011;38721;53.098;6.596;2024-03-23T16:04:31;6.18;;;1.13;;
52858;SDS011;38721;53.098;6.596;2024-03-23T16:06:57;5.57;;;1.42;;
52858;SDS011;38721;53.098;6.596;2024-03-23T16:09:23;6.65;;;1.63;;
52858;SDS011;38721;53.098;6.596;2024-03-23T16:11:51;5.80;;;1.55;;
52858;SDS011;38721;53.098;6.596;2024-03-23T16:14:26;7.35;;;1.25;;
52858;SDS011;38721;53.098;6.596;2024-03-23T16:16:51;5.85;;;1.50;;
52858;SDS011;38721;53.098;6.596;2024-03-23T16:19:17;4.13;;;1.30;;
52858;SDS011;38721;53.098;6.596;2024-03-23T16:21:43;4.30;;;1.35;;
52858;SDS011;38721;53.098;6.596;2024-03-23T16:24:09;8.57;;;1.40;;
52858;SDS011;38721;53.098;6.596;2024-03-23T16:26:35;4.50;;;1.35;;
52858;SDS011;38721;53.098;6.596;2024-03-23T16:29:04;4.03;;;1.50;;
52858;SDS011;38721;53.098;6.596;2024-03-23T16:31:29;3.25;;;1.27;;
52858;SDS011;38721;53.098;6.596;2024-03-23T16:33:56;5.53;;;1.60;;
52858;SDS011;38721;53.098;6.596;2024-03-23T16:36:22;4.72;;;1.60;;
52858;SDS011;38721;53.098;6.596;2024-03-23T16:38:51;4.53;;;1.35;;
52858;SDS011;38721;53.098;6.596;2024-03-23T16:41:17;1.70;;;0.98;;
52858;SDS011;38721;53.098;6.596;2024-03-23T16:43:43;3.75;;;0.82;;
52858;SDS011;38721;53.098;6.596;2024-03-23T16:46:10;4.95;;;1.17;;
52858;SDS011;38721;53.098;6.596;2024-03-23T16:48:43;3.17;;;1.00;;
52858;SDS011;38721;53.098;6.596;2024-03-23T16:51:10;2.38;;;0.98;;
52858;SDS011;38721;53.098;6.596;2024-03-23T16:53:37;5.47;;;1.05;;
52858;SDS011;38721;53.098;6.596;2024-03-23T16:56:08;5.13;;;1.20;;
52858;SDS011;38721;53.098;6.596;2024-03-23T16:58:35;5.15;;;1.10;;
52858;SDS011;38721;53.098;6.596;2024-03-23T17:01:05;5.10;;;1.13;;
52858;SDS011;38721;53.098;6.596;2024-03-23T17:03:37;5.43;;;1.30;;
52858;SDS011;38721;53.098;6.596;2024-03-23T17:06:03;4.50;;;1.25;;
52858;SDS011;38721;53.098;6.596;2024-03-23T17:08:30;3.80;;;1.23;;
52858;SDS011;38721;53.098;6.596;2024-03-23T17:10:59;7.35;;;1.35;;
52858;SDS011;38721;53.098;6.596;2024-03-23T17:13:26;6.47;;;1.40;;
52858;SDS011;38721;53.098;6.596;2024-03-23T17:15:53;3.88;;;1.30;;
52858;SDS011;38721;53.098;6.596;2024-03-23T17:18:19;3.72;;;1.25;;
52858;SDS011;38721;53.098;6.596;2024-03-23T17:20:45;3.67;;;1.45;;
52858;SDS011;38721;53.098;6.596;2024-03-23T17:23:11;3.78;;;1.58;;
52858;SDS011;38721;53.098;6.596;2024-03-23T17:25:36;6.55;;;1.33;;
52858;SDS011;38721;53.098;6.596;2024-03-23T17:28:03;6.65;;;1.88;;
52858;SDS011;38721;53.098;6.596;2024-03-23T17:30:29;9.13;;;1.63;;
52858;SDS011;38721;53.098;6.596;2024-03-23T17:32:55;5.13;;;1.90;;
52858;SDS011;38721;53.098;6.596;2024-03-23T17:35:20;5.38;;;2.00;;
52858;SDS011;38721;53.098;6.596;2024-03-23T17:37:46;10.07;;;2.22;;
52858;SDS011;38721;53.098;6.596;2024-03-23T17:40:12;11.50;;;2.22;;
52858;SDS011;38721;53.098;6.596;2024-03-23T17:42:39;8.73;;;2.58;;
52858;SDS011;38721;53.098;6.596;2024-03-23T17:45:05;6.22;;;2.35;;
52858;SDS011;38721;53.098;6.596;2024-03-23T17:47:40;8.50;;;1.95;;
52858;SDS011;38721;53.098;6.596;2024-03-23T17:50:07;7.93;;;2.00;;
52858;SDS011;38721;53.098;6.596;2024-03-23T17:52:33;6.45;;;1.75;;
52858;SDS011;38721;53.098;6.596;2024-03-23T17:54:59;6.18;;;1.90;;
52858;SDS011;38721;53.098;6.596;2024-03-23T17:57:26;5.55;;;2.17;;
52858;SDS011;38721;53.098;6.596;2024-03-23T17:59:52;8.60;;;1.95;;
52858;SDS011;38721;53.098;6.596;2024-03-23T18:02:18;7.57;;;2.20;;
52858;SDS011;38721;53.098;6.596;2024-03-23T18:04:46;7.15;;;2.55;;
52858;SDS011;38721;53.098;6.596;2024-03-23T18:07:12;6.05;;;1.95;;
52858;SDS011;38721;53.098;6.596;2024-03-23T18:09:38;6.63;;;2.00;;
52858;SDS011;38721;53.098;6.596;2024-03-23T18:12:04;5.95;;;1.67;;
52858;SDS011;38721;53.098;6.596;2024-03-23T18:14:31;4.00;;;1.70;;
52858;SDS011;38721;53.098;6.596;2024-03-23T18:16:57;5.97;;;1.92;;
52858;SDS011;38721;53.098;6.596;2024-03-23T18:19:22;7.50;;;2.13;;
52858;SDS011;38721;53.098;6.596;2024-03-23T18:21:48;8.45;;;2.08;;
52858;SDS011;38721;53.098;6.596;2024-03-23T18:24:15;5.53;;;2.33;;
52858;SDS011;38721;53.098;6.596;2024-03-23T18:26:41;6.95;;;2.47;;
52858;SDS011;38721;53.098;6.596;2024-03-23T18:29:07;6.90;;;2.38;;
52858;SDS011;38721;53.098;6.596;2024-03-23T18:31:32;4.07;;;1.85;;
52858;SDS011;38721;53.098;6.596;2024-03-23T18:33:58;6.75;;;1.98;;
52858;SDS011;38721;53.098;6.596;2024-03-23T18:36:26;7.03;;;1.67;;
52858;SDS011;38721;53.098;6.596;2024-03-23T18:38:52;5.35;;;2.25;;